createdAt,value
2018-07-19T00:00:51.566Z,1013.95
2018-07-19T00:02:00.208Z,1013.96
2018-07-19T00:03:08.870Z,1013.97
2018-07-19T00:04:17.512Z,1013.98
2018-07-19T00:05:26.162Z,1013.96
2018-07-19T00:06:35.088Z,1013.99
2018-07-19T00:07:43.743Z,1013.98
2018-07-19T00:08:52.663Z,1013.99
2018-07-19T00:10:01.589Z,1014
2018-07-19T00:11:10.231Z,1014.02
2018-07-19T00:12:18.884Z,1013.99
2018-07-19T00:13:27.527Z,1014
2018-07-19T00:14:36.179Z,1014.03
2018-07-19T00:15:44.821Z,1013.99
2018-07-19T00:16:53.754Z,1014
2018-07-19T00:18:02.408Z,1014
2018-07-19T00:19:11.926Z,1014.01
2018-07-19T00:20:20.578Z,1014
2018-07-19T00:21:29.213Z,1014
2018-07-19T00:22:38.140Z,1013.99
2018-07-19T00:23:47.054Z,1014.02
2018-07-19T00:24:55.985Z,1013.98
2018-07-19T00:26:04.622Z,1013.99
2018-07-19T00:27:13.282Z,1014
2018-07-19T00:28:21.926Z,1014.02
2018-07-19T00:29:30.848Z,1014.01
2018-07-19T00:30:39.759Z,1014.04
2018-07-19T00:31:48.406Z,1014.01
2018-07-19T00:32:57.057Z,1014.04
2018-07-19T00:34:05.706Z,1014.03
2018-07-19T00:35:14.352Z,1014.06
2018-07-19T00:36:22.988Z,1014.03
2018-07-19T00:37:31.637Z,1014.06
2018-07-19T00:38:40.277Z,1014.07
2018-07-19T00:39:48.930Z,1014.05
2018-07-19T00:40:57.565Z,1014.06
2018-07-19T00:42:06.215Z,1014.08
2018-07-19T00:43:14.856Z,1014.03
2018-07-19T00:44:23.509Z,1014.03
2018-07-19T00:45:32.424Z,1014.01
2018-07-19T00:46:41.073Z,1014.05
2018-07-19T00:47:49.719Z,1014.01
2018-07-19T00:48:58.373Z,1013.99
2018-07-19T00:50:07.016Z,1013.98
2018-07-19T00:51:15.657Z,1013.98
2018-07-19T00:52:24.299Z,1013.94
2018-07-19T00:53:32.943Z,1013.96
2018-07-19T00:54:41.595Z,1013.99
2018-07-19T00:55:50.233Z,1013.97
2018-07-19T00:56:58.881Z,1013.96
2018-07-19T00:58:07.517Z,1014.02
2018-07-19T00:59:16.172Z,1013.99
2018-07-19T01:00:24.816Z,1014.01
2018-07-19T01:01:33.465Z,1014.03
2018-07-19T01:02:42.102Z,1013.99
2018-07-19T01:03:50.758Z,1014
2018-07-19T01:04:59.400Z,1014.01
2018-07-19T01:06:08.050Z,1013.97
2018-07-19T01:07:16.685Z,1014.01
2018-07-19T01:08:25.331Z,1013.98
2018-07-19T01:09:33.981Z,1013.97
2018-07-19T01:10:42.908Z,1013.99
2018-07-19T01:11:51.556Z,1013.94
2018-07-19T01:13:00.193Z,1013.96
2018-07-19T01:14:09.451Z,1013.97
2018-07-19T01:15:18.092Z,1013.93
2018-07-19T01:16:26.745Z,1013.91
2018-07-19T01:17:35.385Z,1013.92
2018-07-19T01:18:44.591Z,1013.89
2018-07-19T01:19:53.231Z,1013.9
2018-07-19T01:21:01.885Z,1013.88
2018-07-19T01:22:10.522Z,1013.86
2018-07-19T01:23:19.175Z,1013.85
2018-07-19T01:24:27.819Z,1013.8
2018-07-19T01:25:36.468Z,1013.81
2018-07-19T01:26:45.112Z,1013.81
2018-07-19T01:27:53.758Z,1013.83
2018-07-19T01:29:02.401Z,1013.81
2018-07-19T01:30:11.048Z,1013.84
2018-07-19T01:31:19.699Z,1013.85
2018-07-19T01:32:28.344Z,1013.8
2018-07-19T01:33:36.988Z,1013.84
2018-07-19T01:34:45.630Z,1013.8
2018-07-19T01:35:54.280Z,1013.83
2018-07-19T01:37:02.929Z,1013.82
2018-07-19T01:38:11.852Z,1013.82
2018-07-19T01:39:20.491Z,1013.79
2018-07-19T01:40:29.141Z,1013.78
2018-07-19T01:41:37.786Z,1013.78
2018-07-19T01:42:46.431Z,1013.83
2018-07-19T01:43:55.066Z,1013.8
2018-07-19T01:45:03.995Z,1013.84
2018-07-19T01:46:13.472Z,1013.81
2018-07-19T01:47:22.404Z,1013.79
2018-07-19T01:48:31.051Z,1013.82
2018-07-19T01:49:39.690Z,1013.84
2018-07-19T01:50:48.335Z,1013.84
2018-07-19T01:51:57.801Z,1013.84
2018-07-19T01:53:06.448Z,1013.9
2018-07-19T01:54:15.091Z,1013.89
2018-07-19T01:55:24.015Z,1013.9
2018-07-19T01:56:33.436Z,1013.9
2018-07-19T01:57:42.087Z,1013.89
2018-07-19T01:58:51.002Z,1013.86
2018-07-19T01:59:59.706Z,1013.89
2018-07-19T02:01:10.322Z,1013.9
2018-07-19T02:02:18.973Z,1013.89
2018-07-19T02:03:27.614Z,1013.91
2018-07-19T02:04:36.266Z,1013.93
2018-07-19T02:05:45.190Z,1013.92
2018-07-19T02:06:53.835Z,1013.94
2018-07-19T02:08:02.484Z,1013.95
2018-07-19T02:09:11.402Z,1013.97
2018-07-19T02:10:20.045Z,1013.97
2018-07-19T02:11:28.687Z,1013.99
2018-07-19T02:12:37.336Z,1013.98
2018-07-19T02:13:45.982Z,1013.99
2018-07-19T02:14:54.625Z,1013.99
2018-07-19T02:16:03.271Z,1013.97
2018-07-19T02:17:11.921Z,1014.01
2018-07-19T02:18:20.562Z,1014.02
2018-07-19T02:19:29.208Z,1014.03
2018-07-19T02:20:37.849Z,1014.05
2018-07-19T02:21:46.774Z,1014.07
2018-07-19T02:22:55.417Z,1014.04
2018-07-19T02:24:04.065Z,1014.02
2018-07-19T02:25:12.707Z,1014.06
2018-07-19T02:26:21.355Z,1014.04
2018-07-19T02:27:29.999Z,1014.04
2018-07-19T02:28:38.641Z,1014.06
2018-07-19T02:29:47.282Z,1014.04
2018-07-19T02:30:55.928Z,1014.07
2018-07-19T02:32:04.574Z,1014.04
2018-07-19T02:33:13.217Z,1014
2018-07-19T02:34:21.858Z,1014.02
2018-07-19T02:35:30.506Z,1014
2018-07-19T02:36:39.145Z,1013.99
2018-07-19T02:37:47.793Z,1014
2018-07-19T02:38:57.224Z,1013.99
2018-07-19T02:40:05.871Z,1014.01
2018-07-19T02:41:14.519Z,1013.99
2018-07-19T02:42:23.163Z,1014
2018-07-19T02:43:31.812Z,1013.98
2018-07-19T02:44:41.208Z,1014
2018-07-19T02:45:49.855Z,1014.03
2018-07-19T02:46:58.503Z,1013.99
2018-07-19T02:48:07.437Z,1013.97
2018-07-19T02:49:16.078Z,1013.99
2018-07-19T02:50:24.723Z,1013.99
2018-07-19T02:51:33.368Z,1013.96
2018-07-19T02:52:42.017Z,1013.97
2018-07-19T02:53:50.656Z,1013.96
2018-07-19T02:54:59.302Z,1013.95
2018-07-19T02:56:07.944Z,1013.95
2018-07-19T02:57:16.592Z,1013.97
2018-07-19T02:58:25.232Z,1013.93
2018-07-19T02:59:33.877Z,1013.93
2018-07-19T03:00:42.520Z,1013.94
2018-07-19T03:01:51.164Z,1013.93
2018-07-19T03:03:00.091Z,1013.93
2018-07-19T03:04:08.729Z,1013.96
2018-07-19T03:05:17.372Z,1013.98
2018-07-19T03:06:26.063Z,1013.98
2018-07-19T03:07:34.708Z,1013.99
2018-07-19T03:08:43.396Z,1013.96
2018-07-19T03:09:52.040Z,1013.96
2018-07-19T03:11:00.680Z,1013.97
2018-07-19T03:12:09.328Z,1013.97
2018-07-19T03:13:17.969Z,1014.01
2018-07-19T03:14:26.614Z,1013.99
2018-07-19T03:15:35.534Z,1013.98
2018-07-19T03:16:44.180Z,1014
2018-07-19T03:17:52.828Z,1013.99
2018-07-19T03:19:02.257Z,1014
2018-07-19T03:20:10.908Z,1014
2018-07-19T03:21:19.552Z,1014.01
2018-07-19T03:22:28.198Z,1013.96
2018-07-19T03:23:37.609Z,1014.01
2018-07-19T03:24:46.264Z,1014.01
2018-07-19T03:25:55.221Z,1014
2018-07-19T03:27:03.868Z,1013.96
2018-07-19T03:28:12.506Z,1014.01
2018-07-19T03:29:21.160Z,1014
2018-07-19T03:30:29.798Z,1014.01
2018-07-19T03:31:38.739Z,1013.97
2018-07-19T03:32:47.664Z,1013.92
2018-07-19T03:33:56.316Z,1013.95
2018-07-19T03:35:05.730Z,1013.97
2018-07-19T03:36:14.369Z,1014
2018-07-19T03:37:23.010Z,1013.97
2018-07-19T03:38:31.651Z,1013.96
2018-07-19T03:39:40.305Z,1013.95
2018-07-19T03:40:48.943Z,1013.97
2018-07-19T03:41:57.594Z,1013.94
2018-07-19T03:43:06.229Z,1013.96
2018-07-19T03:44:14.881Z,1013.97
2018-07-19T03:45:23.520Z,1013.95
2018-07-19T03:46:32.445Z,1013.94
2018-07-19T03:47:41.079Z,1013.93
2018-07-19T03:48:49.732Z,1013.91
2018-07-19T03:49:58.369Z,1013.93
2018-07-19T03:51:07.016Z,1013.93
2018-07-19T03:52:15.651Z,1013.93
2018-07-19T03:53:24.300Z,1013.94
2018-07-19T03:54:32.950Z,1013.93
2018-07-19T03:55:41.596Z,1013.93
2018-07-19T03:56:50.244Z,1013.96
2018-07-19T03:57:59.153Z,1013.95
2018-07-19T03:59:07.804Z,1013.94
2018-07-19T04:00:16.447Z,1013.95
2018-07-19T04:01:25.102Z,1013.94
2018-07-19T04:02:33.737Z,1013.94
2018-07-19T04:03:42.385Z,1013.93
2018-07-19T04:04:51.027Z,1013.96
2018-07-19T04:05:59.680Z,1013.9
2018-07-19T04:07:08.313Z,1013.9
2018-07-19T04:08:16.971Z,1013.91
2018-07-19T04:09:25.605Z,1013.9
2018-07-19T04:10:34.261Z,1013.93
2018-07-19T04:11:42.902Z,1013.9
2018-07-19T04:12:51.542Z,1013.92
2018-07-19T04:14:00.186Z,1013.94
2018-07-19T04:15:08.829Z,1013.92
2018-07-19T04:16:17.760Z,1013.92
2018-07-19T04:17:26.403Z,1013.92
2018-07-19T04:18:35.906Z,1013.89
2018-07-19T04:19:44.546Z,1013.87
2018-07-19T04:20:53.191Z,1013.89
2018-07-19T04:22:01.838Z,1013.9
2018-07-19T04:23:10.762Z,1013.86
2018-07-19T04:24:20.181Z,1013.9
2018-07-19T04:25:29.105Z,1013.85
2018-07-19T04:26:37.747Z,1013.9
2018-07-19T04:27:46.393Z,1013.9
2018-07-19T04:28:55.034Z,1013.87
2018-07-19T04:30:03.684Z,1013.92
2018-07-19T04:31:13.073Z,1013.9
2018-07-19T04:32:21.751Z,1013.9
2018-07-19T04:33:30.864Z,1013.89
2018-07-19T04:34:39.503Z,1013.9
2018-07-19T04:35:48.146Z,1013.91
2018-07-19T04:36:56.791Z,1013.87
2018-07-19T04:38:05.440Z,1013.92
2018-07-19T04:39:14.078Z,1013.92
2018-07-19T04:40:22.721Z,1013.93
2018-07-19T04:41:31.364Z,1013.94
2018-07-19T04:42:40.014Z,1013.95
2018-07-19T04:43:48.650Z,1013.95
2018-07-19T04:44:57.302Z,1013.94
2018-07-19T04:46:05.943Z,1013.94
2018-07-19T04:47:14.590Z,1013.93
2018-07-19T04:48:23.333Z,1013.92
2018-07-19T04:49:31.888Z,1013.92
2018-07-19T04:50:41.118Z,1013.94
2018-07-19T04:51:49.766Z,1013.96
2018-07-19T04:52:58.409Z,1013.96
2018-07-19T04:54:07.055Z,1013.99
2018-07-19T04:55:15.696Z,1014
2018-07-19T04:56:24.338Z,1014.01
2018-07-19T04:57:32.986Z,1014
2018-07-19T04:58:41.633Z,1014.02
2018-07-19T04:59:50.277Z,1014.01
2018-07-19T05:00:58.918Z,1014
2018-07-19T05:02:07.904Z,1013.96
2018-07-19T05:03:16.479Z,1013.95
2018-07-19T05:04:25.125Z,1013.98
2018-07-19T05:05:33.767Z,1014
2018-07-19T05:06:42.414Z,1014.03
2018-07-19T05:07:51.056Z,1014.05
2018-07-19T05:08:59.703Z,1014.06
2018-07-19T05:10:08.349Z,1014.07
2018-07-19T05:11:16.983Z,1014.06
2018-07-19T05:12:25.628Z,1014.05
2018-07-19T05:13:34.272Z,1014.08
2018-07-19T05:14:42.920Z,1014.06
2018-07-19T05:15:51.562Z,1014.11
2018-07-19T05:17:00.208Z,1014.08
2018-07-19T05:18:08.852Z,1014.11
2018-07-19T05:19:18.418Z,1014.14
2018-07-19T05:20:27.052Z,1014.17
2018-07-19T05:21:35.985Z,1014.17
2018-07-19T05:22:44.622Z,1014.17
2018-07-19T05:23:53.274Z,1014.21
2018-07-19T05:25:01.918Z,1014.21
2018-07-19T05:26:10.557Z,1014.18
2018-07-19T05:27:19.202Z,1014.22
2018-07-19T05:28:27.847Z,1014.18
2018-07-19T05:29:36.500Z,1014.16
2018-07-19T05:30:45.139Z,1014.13
2018-07-19T05:31:53.787Z,1014.13
2018-07-19T05:33:02.422Z,1014.15
2018-07-19T05:34:11.081Z,1014.17
2018-07-19T05:35:19.719Z,1014.12
2018-07-19T05:36:28.367Z,1014.14
2018-07-19T05:37:37.009Z,1014.15
2018-07-19T05:38:45.664Z,1014.14
2018-07-19T05:39:54.305Z,1014.16
2018-07-19T05:41:02.955Z,1014.19
2018-07-19T05:42:11.608Z,1014.17
2018-07-19T05:43:20.236Z,1014.11
2018-07-19T05:44:28.886Z,1014.13
2018-07-19T05:45:37.534Z,1014.12
2018-07-19T05:46:46.180Z,1014.17
2018-07-19T05:47:54.816Z,1014.18
2018-07-19T05:49:03.468Z,1014.21
2018-07-19T05:50:12.384Z,1014.22
2018-07-19T05:51:21.040Z,1014.22
2018-07-19T05:52:30.415Z,1014.2
2018-07-19T05:53:39.064Z,1014.22
2018-07-19T05:54:47.705Z,1014.21
2018-07-19T05:55:56.360Z,1014.2
2018-07-19T05:57:04.996Z,1014.17
2018-07-19T05:58:13.649Z,1014.16
2018-07-19T05:59:22.640Z,1014.13
2018-07-19T06:00:31.296Z,1014.15
2018-07-19T06:01:39.943Z,1014.15
2018-07-19T06:02:48.582Z,1014.13
2018-07-19T06:03:57.228Z,1014.16
2018-07-19T06:05:05.872Z,1014.16
2018-07-19T06:06:14.526Z,1014.11
2018-07-19T06:07:24.007Z,1014.09
2018-07-19T06:08:32.659Z,1014.11
2018-07-19T06:09:41.353Z,1014.1
2018-07-19T06:10:50.364Z,1014.11
2018-07-19T06:11:59.007Z,1014.12
2018-07-19T06:13:07.661Z,1014.13
2018-07-19T06:14:16.301Z,1014.14
2018-07-19T06:15:24.955Z,1014.15
2018-07-19T06:16:33.876Z,1014.14
2018-07-19T06:17:42.519Z,1014.13
2018-07-19T06:18:51.177Z,1014.18
2018-07-19T06:19:59.822Z,1014.14
2018-07-19T06:21:08.464Z,1014.13
2018-07-19T06:22:17.111Z,1014.1
2018-07-19T06:23:25.756Z,1014.14
2018-07-19T06:24:34.414Z,1014.13
2018-07-19T06:25:43.053Z,1014.14
2018-07-19T06:26:51.704Z,1014.18
2018-07-19T06:28:00.622Z,1014.13
2018-07-19T06:29:09.278Z,1014.15
2018-07-19T06:30:17.917Z,1014.13
2018-07-19T06:31:26.581Z,1014.14
2018-07-19T06:32:35.545Z,1014.14
2018-07-19T06:33:44.203Z,1014.17
2018-07-19T06:34:53.134Z,1014.16
2018-07-19T06:36:01.787Z,1014.13
2018-07-19T06:37:10.723Z,1014.13
2018-07-19T06:38:19.374Z,1014.16
2018-07-19T06:39:28.027Z,1014.16
2018-07-19T06:40:36.677Z,1014.14
2018-07-19T06:41:45.328Z,1014.14
2018-07-19T06:42:54.264Z,1014.17
2018-07-19T06:44:02.917Z,1014.15
2018-07-19T06:45:11.562Z,1014.15
2018-07-19T06:46:20.219Z,1014.14
2018-07-19T06:47:28.860Z,1014.13
2018-07-19T06:48:37.511Z,1014.16
2018-07-19T06:49:46.159Z,1014.17
2018-07-19T06:50:54.814Z,1014.1
2018-07-19T06:52:04.196Z,1014.1
2018-07-19T06:53:12.846Z,1014.13
2018-07-19T06:54:21.777Z,1014.13
2018-07-19T06:55:30.434Z,1014.1
2018-07-19T06:56:39.080Z,1014.11
2018-07-19T06:57:47.727Z,1014.13
2018-07-19T06:58:56.371Z,1014.14
2018-07-19T07:00:05.024Z,1014.14
2018-07-19T07:01:13.679Z,1014.14
2018-07-19T07:02:22.324Z,1014.16
2018-07-19T07:03:30.996Z,1014.16
2018-07-19T07:04:40.003Z,1014.16
2018-07-19T07:05:48.664Z,1014.13
2018-07-19T07:06:57.307Z,1014.13
2018-07-19T07:08:05.960Z,1014.14
2018-07-19T07:09:14.600Z,1014.13
2018-07-19T07:10:23.538Z,1014.1
2018-07-19T07:11:32.465Z,1014.1
2018-07-19T07:12:41.116Z,1014.12
2018-07-19T07:13:49.756Z,1014.14
2018-07-19T07:14:58.417Z,1014.13
2018-07-19T07:16:07.055Z,1014.13
2018-07-19T07:17:16.447Z,1014.12
2018-07-19T07:18:25.097Z,1014.14
2018-07-19T07:19:33.746Z,1014.1
2018-07-19T07:20:42.668Z,1014.14
2018-07-19T07:21:51.317Z,1014.14
2018-07-19T07:22:59.972Z,1014.14
2018-07-19T07:24:08.609Z,1014.15
2018-07-19T07:25:17.257Z,1014.15
2018-07-19T07:26:25.906Z,1014.16
2018-07-19T07:27:34.559Z,1014.15
2018-07-19T07:28:43.203Z,1014.22
2018-07-19T07:29:51.854Z,1014.23
2018-07-19T07:31:00.501Z,1014.26
2018-07-19T07:32:09.155Z,1014.24
2018-07-19T07:33:17.804Z,1014.29
2018-07-19T07:34:27.262Z,1014.31
2018-07-19T07:35:35.911Z,1014.27
2018-07-19T07:36:44.559Z,1014.28
2018-07-19T07:37:53.213Z,1014.28
2018-07-19T07:39:01.975Z,1014.27
2018-07-19T07:40:11.282Z,1014.29
2018-07-19T07:41:20.520Z,1014.33
2018-07-19T07:42:29.685Z,1014.29
2018-07-19T07:43:38.336Z,1014.29
2018-07-19T07:44:47.268Z,1014.28
2018-07-19T07:45:55.916Z,1014.28
2018-07-19T07:47:05.131Z,1014.28
2018-07-19T07:48:14.575Z,1014.28
2018-07-19T07:49:23.230Z,1014.3
2018-07-19T07:50:31.876Z,1014.31
2018-07-19T07:51:40.525Z,1014.31
2018-07-19T07:52:49.175Z,1014.3
2018-07-19T07:53:57.828Z,1014.34
2018-07-19T07:55:06.478Z,1014.34
2018-07-19T07:56:15.123Z,1014.35
2018-07-19T07:57:23.777Z,1014.35
2018-07-19T07:58:32.427Z,1014.36
2018-07-19T07:59:41.080Z,1014.42
2018-07-19T08:00:49.725Z,1014.39
2018-07-19T08:01:58.666Z,1014.33
2018-07-19T08:03:07.316Z,1014.33
2018-07-19T08:04:15.980Z,1014.41
2018-07-19T08:05:24.900Z,1014.4
2018-07-19T08:06:33.553Z,1014.4
2018-07-19T08:07:42.202Z,1014.38
2018-07-19T08:08:50.906Z,1014.41
2018-07-19T08:09:59.516Z,1014.4
2018-07-19T08:11:08.993Z,1014.42
2018-07-19T08:12:17.639Z,1014.4
2018-07-19T08:13:26.285Z,1014.47
2018-07-19T08:14:34.942Z,1014.44
2018-07-19T08:15:43.942Z,1014.41
2018-07-19T08:16:52.544Z,1014.46
2018-07-19T08:18:01.203Z,1014.45
2018-07-19T08:19:09.845Z,1014.51
2018-07-19T08:20:19.550Z,1014.43
2018-07-19T08:21:28.196Z,1014.47
2018-07-19T08:22:37.224Z,1014.47
2018-07-19T08:23:45.867Z,1014.47
2018-07-19T08:24:54.521Z,1014.45
2018-07-19T08:26:03.170Z,1014.47
2018-07-19T08:27:11.830Z,1014.48
2018-07-19T08:28:20.478Z,1014.5
2018-07-19T08:29:29.122Z,1014.49
2018-07-19T08:30:37.772Z,1014.46
2018-07-19T08:31:46.422Z,1014.48
2018-07-19T08:32:55.085Z,1014.47
2018-07-19T08:34:03.734Z,1014.47
2018-07-19T08:35:12.390Z,1014.38
2018-07-19T08:36:21.033Z,1014.38
2018-07-19T08:37:29.694Z,1014.41
2018-07-19T08:38:38.342Z,1014.41
2018-07-19T08:39:46.998Z,1014.36
2018-07-19T08:40:55.919Z,1014.37
2018-07-19T08:42:04.584Z,1014.35
2018-07-19T08:43:13.232Z,1014.36
2018-07-19T08:44:21.888Z,1014.35
2018-07-19T08:45:30.530Z,1014.36
2018-07-19T08:46:39.182Z,1014.34
2018-07-19T08:47:47.838Z,1014.33
2018-07-19T08:48:56.497Z,1014.33
2018-07-19T08:50:05.426Z,1014.33
2018-07-19T08:51:14.071Z,1014.31
2018-07-19T08:52:23.646Z,1014.3
2018-07-19T08:53:32.292Z,1014.31
2018-07-19T08:54:40.954Z,1014.3
2018-07-19T08:55:49.592Z,1014.31
2018-07-19T08:56:58.250Z,1014.34
2018-07-19T08:58:06.899Z,1014.3
2018-07-19T08:59:15.851Z,1014.3
2018-07-19T09:00:24.783Z,1014.29
2018-07-19T09:01:33.732Z,1014.23
2018-07-19T09:02:43.305Z,1014.24
2018-07-19T09:03:52.254Z,1014.25
2018-07-19T09:05:00.904Z,1014.22
2018-07-19T09:06:09.830Z,1014.24
2018-07-19T09:07:18.479Z,1014.23
2018-07-19T09:08:27.128Z,1014.25
2018-07-19T09:09:35.790Z,1014.23
2018-07-19T09:10:44.443Z,1014.25
2018-07-19T09:11:53.098Z,1014.25
2018-07-19T09:13:02.015Z,1014.23
2018-07-19T09:14:10.723Z,1014.23
2018-07-19T09:15:19.327Z,1014.25
2018-07-19T09:16:27.979Z,1014.23
2018-07-19T09:17:36.633Z,1014.24
2018-07-19T09:18:45.287Z,1014.27
2018-07-19T09:19:54.548Z,1014.22
2018-07-19T09:21:03.207Z,1014.21
2018-07-19T09:22:11.852Z,1014.2
2018-07-19T09:23:20.513Z,1014.23
2018-07-19T09:24:29.165Z,1014.2
2018-07-19T09:25:37.817Z,1014.17
2018-07-19T09:26:46.473Z,1014.15
2018-07-19T09:27:55.121Z,1014.18
2018-07-19T09:29:04.326Z,1014.16
2018-07-19T09:30:12.976Z,1014.13
2018-07-19T09:31:21.923Z,1014.14
2018-07-19T09:32:31.322Z,1014.12
2018-07-19T09:33:40.682Z,1014.15
2018-07-19T09:34:49.327Z,1014.11
2018-07-19T09:35:57.981Z,1014.13
2018-07-19T09:37:06.625Z,1014.13
2018-07-19T09:38:15.297Z,1014.1
2018-07-19T09:39:23.930Z,1014.11
2018-07-19T09:40:32.587Z,1014.05
2018-07-19T09:41:41.242Z,1014.05
2018-07-19T09:42:50.252Z,1014.07
2018-07-19T09:43:59.192Z,1014.05
2018-07-19T09:45:07.844Z,1014.01
2018-07-19T09:46:16.504Z,1013.98
2018-07-19T09:47:25.151Z,1014.01
2018-07-19T09:48:33.804Z,1013.99
2018-07-19T09:49:42.451Z,1013.96
2018-07-19T09:50:51.107Z,1013.94
2018-07-19T09:51:59.762Z,1013.95
2018-07-19T09:53:08.688Z,1013.97
2018-07-19T09:54:17.336Z,1013.96
2018-07-19T09:55:26.269Z,1014
2018-07-19T09:56:34.927Z,1013.98
2018-07-19T09:57:45.365Z,1013.98
2018-07-19T09:58:54.017Z,1013.95
2018-07-19T10:00:02.671Z,1013.95
2018-07-19T10:01:11.603Z,1013.96
2018-07-19T10:02:20.253Z,1013.94
2018-07-19T10:03:28.914Z,1013.95
2018-07-19T10:04:37.563Z,1013.98
2018-07-19T10:05:46.258Z,1013.94
2018-07-19T10:06:55.203Z,1013.97
2018-07-19T10:08:04.129Z,1013.93
2018-07-19T10:09:13.045Z,1013.95
2018-07-19T10:10:22.431Z,1013.95
2018-07-19T10:11:31.085Z,1013.93
2018-07-19T10:12:40.306Z,1013.92
2018-07-19T10:13:49.056Z,1013.96
2018-07-19T10:14:57.620Z,1013.99
2018-07-19T10:16:07.071Z,1013.97
2018-07-19T10:17:15.728Z,1014.01
2018-07-19T10:18:24.375Z,1013.98
2018-07-19T10:19:33.028Z,1013.97
2018-07-19T10:20:41.735Z,1013.98
2018-07-19T10:21:50.341Z,1013.95
2018-07-19T10:22:58.989Z,1013.92
2018-07-19T10:24:07.645Z,1013.88
2018-07-19T10:25:16.299Z,1013.91
2018-07-19T10:26:24.956Z,1013.95
2018-07-19T10:27:33.604Z,1013.92
2018-07-19T10:28:42.310Z,1013.86
2018-07-19T10:29:50.910Z,1013.87
2018-07-19T10:30:59.568Z,1013.87
2018-07-19T10:32:08.372Z,1013.83
2018-07-19T10:33:17.401Z,1013.81
2018-07-19T10:34:26.094Z,1013.8
2018-07-19T10:35:34.705Z,1013.83
2018-07-19T10:36:43.354Z,1013.82
2018-07-19T10:37:52.009Z,1013.81
2018-07-19T10:39:00.665Z,1013.83
2018-07-19T10:40:09.311Z,1013.8
2018-07-19T10:41:17.969Z,1013.81
2018-07-19T10:42:26.622Z,1013.79
2018-07-19T10:43:36.107Z,1013.83
2018-07-19T10:44:44.756Z,1013.78
2018-07-19T10:45:53.412Z,1013.76
2018-07-19T10:47:02.065Z,1013.79
2018-07-19T10:48:10.725Z,1013.79
2018-07-19T10:49:19.369Z,1013.79
2018-07-19T10:50:28.028Z,1013.81
2018-07-19T10:51:36.700Z,1013.79
2018-07-19T10:52:45.333Z,1013.78
2018-07-19T10:53:53.980Z,1013.72
2018-07-19T10:55:02.636Z,1013.73
2018-07-19T10:56:11.294Z,1013.72
2018-07-19T10:57:19.991Z,1013.74
2018-07-19T10:58:28.608Z,1013.75
2018-07-19T10:59:37.253Z,1013.77
2018-07-19T11:00:45.907Z,1013.73
2018-07-19T11:01:54.561Z,1013.7
2018-07-19T11:03:03.225Z,1013.67
2018-07-19T11:04:11.873Z,1013.66
2018-07-19T11:05:20.527Z,1013.61
2018-07-19T11:06:29.179Z,1013.66
2018-07-19T11:07:37.836Z,1013.62
2018-07-19T11:08:46.485Z,1013.64
2018-07-19T11:09:55.162Z,1013.62
2018-07-19T11:11:04.246Z,1013.67
2018-07-19T11:12:12.908Z,1013.66
2018-07-19T11:13:21.564Z,1013.64
2018-07-19T11:14:30.216Z,1013.59
2018-07-19T11:15:38.868Z,1013.57
2018-07-19T11:16:47.521Z,1013.61
2018-07-19T11:17:56.184Z,1013.61
2018-07-19T11:19:04.834Z,1013.54
2018-07-19T11:20:13.492Z,1013.58
2018-07-19T11:21:22.135Z,1013.52
2018-07-19T11:22:30.799Z,1013.49
2018-07-19T11:23:39.448Z,1013.51
2018-07-19T11:24:48.111Z,1013.53
2018-07-19T11:25:56.755Z,1013.53
2018-07-19T11:27:05.417Z,1013.5
2018-07-19T11:28:14.066Z,1013.5
2018-07-19T11:29:22.724Z,1013.5
2018-07-19T11:30:31.375Z,1013.52
2018-07-19T11:31:40.032Z,1013.49
2018-07-19T11:32:48.691Z,1013.51
2018-07-19T11:33:57.349Z,1013.43
2018-07-19T11:35:06.008Z,1013.43
2018-07-19T11:36:14.664Z,1013.47
2018-07-19T11:37:23.584Z,1013.49
2018-07-19T11:38:32.232Z,1013.45
2018-07-19T11:39:40.895Z,1013.43
2018-07-19T11:40:49.542Z,1013.38
2018-07-19T11:41:58.461Z,1013.41
2018-07-19T11:43:07.109Z,1013.41
2018-07-19T11:44:15.775Z,1013.38
2018-07-19T11:45:24.419Z,1013.36
2018-07-19T11:46:33.843Z,1013.32
2018-07-19T11:47:42.492Z,1013.34
2018-07-19T11:48:51.156Z,1013.34
2018-07-19T11:49:59.851Z,1013.37
2018-07-19T11:51:08.459Z,1013.34
2018-07-19T11:52:17.381Z,1013.4
2018-07-19T11:53:26.031Z,1013.36
2018-07-19T11:54:34.958Z,1013.36
2018-07-19T11:55:43.608Z,1013.37
2018-07-19T11:56:52.270Z,1013.35
2018-07-19T11:58:01.176Z,1013.33
2018-07-19T11:59:09.838Z,1013.35
2018-07-19T12:00:18.489Z,1013.29
2018-07-19T12:01:27.148Z,1013.24
2018-07-19T12:02:35.792Z,1013.21
2018-07-19T12:03:44.457Z,1013.23
2018-07-19T12:04:53.109Z,1013.2
2018-07-19T12:06:02.035Z,1013.21
2018-07-19T12:07:10.943Z,1013.21
2018-07-19T12:08:19.598Z,1013.2
2018-07-19T12:09:28.266Z,1013.18
2018-07-19T12:10:36.919Z,1013.18
2018-07-19T12:11:45.578Z,1013.16
2018-07-19T12:12:54.227Z,1013.15
2018-07-19T12:14:02.883Z,1013.16
2018-07-19T12:15:11.801Z,1013.2
2018-07-19T12:16:20.463Z,1013.18
2018-07-19T12:17:29.113Z,1013.15
2018-07-19T12:18:37.767Z,1013.12
2018-07-19T12:19:46.687Z,1013.16
2018-07-19T12:20:55.345Z,1013.11
2018-07-19T12:22:03.997Z,1013.17
2018-07-19T12:23:12.913Z,1013.14
2018-07-19T12:24:21.566Z,1013.12
2018-07-19T12:25:30.225Z,1013.11
2018-07-19T12:26:38.881Z,1013.13
2018-07-19T12:27:47.540Z,1013.12
2018-07-19T12:28:56.195Z,1013.16
2018-07-19T12:30:04.847Z,1013.1
2018-07-19T12:31:13.522Z,1013.1
2018-07-19T12:32:22.161Z,1013.09
2018-07-19T12:33:30.816Z,1013.1
2018-07-19T12:34:39.471Z,1013.06
2018-07-19T12:35:48.131Z,1013.03
2018-07-19T12:36:57.104Z,1013.01
2018-07-19T12:38:06.100Z,1013.03
2018-07-19T12:39:14.751Z,1013.05
2018-07-19T12:40:23.410Z,1013.04
2018-07-19T12:41:32.064Z,1013.02
2018-07-19T12:42:40.775Z,1013.02
2018-07-19T12:43:49.658Z,1012.99
2018-07-19T12:44:58.321Z,1012.99
2018-07-19T12:46:06.976Z,1012.97
2018-07-19T12:47:15.636Z,1012.96
2018-07-19T12:48:24.296Z,1012.94
2018-07-19T12:49:32.957Z,1012.96
2018-07-19T12:50:41.881Z,1012.93
2018-07-19T12:51:50.543Z,1012.91
2018-07-19T12:52:59.202Z,1012.9
2018-07-19T12:54:07.853Z,1012.93
2018-07-19T12:55:16.511Z,1012.91
2018-07-19T12:56:25.163Z,1012.86
2018-07-19T12:57:33.822Z,1012.9
2018-07-19T12:58:42.737Z,1012.87
2018-07-19T12:59:51.394Z,1012.85
2018-07-19T13:01:00.313Z,1012.83
2018-07-19T13:02:09.241Z,1012.86
2018-07-19T13:03:17.890Z,1012.86
2018-07-19T13:04:26.547Z,1012.83
2018-07-19T13:05:35.200Z,1012.84
2018-07-19T13:06:43.852Z,1012.85
2018-07-19T13:07:52.512Z,1012.88
2018-07-19T13:09:01.168Z,1012.86
2018-07-19T13:10:09.830Z,1012.88
2018-07-19T13:11:18.473Z,1012.93
2018-07-19T13:12:27.147Z,1012.93
2018-07-19T13:13:36.058Z,1012.84
2018-07-19T13:14:44.717Z,1012.91
2018-07-19T13:15:53.364Z,1012.87
2018-07-19T13:17:02.302Z,1012.88
2018-07-19T13:18:10.956Z,1012.87
2018-07-19T13:19:19.615Z,1012.84
2018-07-19T13:20:28.263Z,1012.81
2018-07-19T13:21:37.184Z,1012.81
2018-07-19T13:22:45.836Z,1012.8
2018-07-19T13:23:54.497Z,1012.8
2018-07-19T13:25:03.443Z,1012.78
2018-07-19T13:26:12.093Z,1012.8
2018-07-19T13:27:20.752Z,1012.79
2018-07-19T13:28:29.930Z,1012.8
2018-07-19T13:29:38.591Z,1012.8
2018-07-19T13:30:47.240Z,1012.76
2018-07-19T13:31:55.901Z,1012.76
2018-07-19T13:33:04.555Z,1012.74
2018-07-19T13:34:13.215Z,1012.73
2018-07-19T13:35:21.858Z,1012.73
2018-07-19T13:36:30.575Z,1012.76
2018-07-19T13:37:39.173Z,1012.76
2018-07-19T13:38:47.843Z,1012.8
2018-07-19T13:39:56.492Z,1012.76
2018-07-19T13:41:05.144Z,1012.77
2018-07-19T13:42:13.805Z,1012.71
2018-07-19T13:43:22.457Z,1012.75
2018-07-19T13:44:31.123Z,1012.71
2018-07-19T13:45:40.037Z,1012.71
2018-07-19T13:46:48.963Z,1012.7
2018-07-19T13:47:57.865Z,1012.68
2018-07-19T13:49:06.528Z,1012.69
2018-07-19T13:50:15.177Z,1012.68
2018-07-19T13:51:23.837Z,1012.65
2018-07-19T13:52:32.483Z,1012.67
2018-07-19T13:53:41.146Z,1012.64
2018-07-19T13:54:49.800Z,1012.67
2018-07-19T13:55:58.456Z,1012.64